Time;durP1;ratioP1;P1;durP2;ratioP2;P2;SDS_P1;SDS_P2;PMS_P1;PMS_P2;Temp;Humidity;BMP_temperature;BMP_pressure;BME280_temperature;BME280_humidity;BME280_pressure;Samples;Min_cycle;Max_cycle;Signal;HPM_P1;HPM_P2
2021/06/20 00:01:16;;;;;;;13.87;10.90;;;26.10;99.90;;;;;;5116055;28;20646;-67
2021/06/20 00:03:42;;;;;;;18.70;12.00;;;26.00;99.90;;;;;;5116868;28;20600;-67
2021/06/20 00:06:32;;;;;;;16.17;11.40;;;26.00;99.90;;;;;;5116714;28;21149;-67
2021/06/20 00:08:59;;;;;;;20.87;12.40;;;25.90;99.90;;;;;;5116491;28;21221;-67
2021/06/20 00:11:27;;;;;;;25.47;13.03;;;25.90;99.90;;;;;;5116542;28;20596;-67
2021/06/20 00:13:55;;;;;;;20.63;12.67;;;25.80;99.90;;;;;;5116542;28;20693;-67
2021/06/20 00:16:21;;;;;;;11.73;10.70;;;25.80;99.90;;;;;;5116723;28;20615;-68
2021/06/20 00:18:47;;;;;;;22.10;12.47;;;25.80;99.90;;;;;;5116719;28;21010;-68
2021/06/20 00:21:14;;;;;;;13.70;11.93;;;25.80;99.90;;;;;;5116277;28;20970;-68
2021/06/20 00:23:41;;;;;;;20.43;11.70;;;25.80;99.90;;;;;;5116501;28;20588;-68
2021/06/20 00:26:07;;;;;;;20.40;11.40;;;25.80;99.90;;;;;;5116252;28;20604;-68
2021/06/20 00:28:34;;;;;;;17.03;11.30;;;25.80;99.90;;;;;;5098194;28;20955;-68
2021/06/20 00:31:00;;;;;;;18.57;10.60;;;25.80;99.90;;;;;;5116316;28;20595;-68
2021/06/20 00:33:27;;;;;;;26.23;11.90;;;25.80;84.10;;;;;;5116552;28;20651;-68
2021/06/20 00:35:53;;;;;;;18.60;9.90;;;25.80;76.00;;;;;;5116308;28;20603;-68
2021/06/20 00:38:19;;;;;;;15.50;10.50;;;25.80;67.70;;;;;;5097185;28;20620;-68
2021/06/20 00:40:46;;;;;;;20.47;9.63;;;25.90;50.50;;;;;;5115885;28;20628;-68
2021/06/20 00:43:12;;;;;;;15.13;9.37;;;25.90;33.70;;;;;;5115425;28;20676;-68
2021/06/20 00:45:39;;;;;;;28.30;10.27;;;26.00;36.40;;;;;;5116106;28;21142;-68
2021/06/20 00:48:06;;;;;;;24.20;10.60;;;25.90;31.30;;;;;;5115854;28;20607;-68
2021/06/20 00:50:33;;;;;;;18.67;9.80;;;25.90;25.60;;;;;;5115720;28;21217;-68
2021/06/20 00:53:02;;;;;;;25.30;10.63;;;25.80;17.30;;;;;;5115888;28;20631;-68
2021/06/20 00:55:30;;;;;;;15.40;9.80;;;25.80;19.00;;;;;;5115672;28;20688;-68
2021/06/20 00:58:01;;;;;;;19.73;9.10;;;25.80;24.60;;;;;;5097807;28;20620;-68
2021/06/20 01:00:28;;;;;;;25.47;9.90;;;25.80;28.10;;;;;;5115771;28;20602;-68
2021/06/20 01:02:55;;;;;;;19.53;9.90;;;25.80;24.40;;;;;;5115709;28;20961;-68
2021/06/20 01:05:22;;;;;;;24.23;8.87;;;25.80;30.50;;;;;;5115618;28;20718;-68
2021/06/20 01:07:52;;;;;;;16.43;8.47;;;25.70;27.10;;;;;;5115490;28;20647;-68
2021/06/20 01:10:25;;;;;;;28.77;9.67;;;25.80;8.30;;;;;;5115468;28;20687;-68
2021/06/20 01:12:51;;;;;;;26.33;9.70;;;25.80;12.80;;;;;;5115483;28;20596;-68
2021/06/20 01:15:18;;;;;;;25.10;7.50;;;25.70;6.60;;;;;;5115494;28;20704;-68
2021/06/20 01:17:46;;;;;;;22.03;7.60;;;25.60;9.30;;;;;;5115466;28;20604;-68
2021/06/20 01:20:15;;;;;;;19.53;7.33;;;25.60;22.90;;;;;;5115380;28;20687;-68
2021/06/20 01:22:50;;;;;;;17.63;7.43;;;25.40;18.50;;;;;;5115538;28;20703;-68
2021/06/20 01:25:21;;;;;;;19.83;7.87;;;25.40;31.90;;;;;;5115287;28;20561;-68
2021/06/20 01:27:52;;;;;;;15.10;8.30;;;25.30;26.60;;;;;;5114816;28;20977;-68
2021/06/20 01:30:25;;;;;;;22.80;7.40;;;25.30;21.70;;;;;;5097040;28;20628;-68
2021/06/20 01:32:53;;;;;;;15.73;6.83;;;25.20;40.90;;;;;;5114423;28;20988;-68
2021/06/20 01:35:20;;;;;;;21.07;7.77;;;25.10;33.00;;;;;;5115194;28;20971;-68
2021/06/20 01:37:47;;;;;;;16.47;7.30;;;25.10;38.30;;;;;;5114688;28;20722;-68
2021/06/20 01:40:16;;;;;;;15.87;6.90;;;24.90;43.20;;;;;;5096428;28;20643;-68
2021/06/20 01:42:43;;;;;;;14.20;6.00;;;25.00;20.60;;;;;;5114977;28;20612;-68
2021/06/20 01:45:11;;;;;;;19.00;6.77;;;24.90;24.50;;;;;;5113925;28;20624;-68
2021/06/20 01:47:37;;;;;;;13.53;5.70;;;24.80;34.70;;;;;;5114729;28;20600;-68
2021/06/20 01:50:08;;;;;;;17.50;6.40;;;24.80;18.80;;;;;;5113948;28;20644;-68
2021/06/20 01:52:35;;;;;;;18.33;6.40;;;24.90;20.40;;;;;;5114509;28;21200;-68
2021/06/20 01:55:02;;;;;;;17.93;6.67;;;24.90;28.40;;;;;;5114790;28;20934;-69
2021/06/20 01:57:31;;;;;;;18.70;6.13;;;24.80;17.70;;;;;;5114557;28;20589;-68
2021/06/20 01:59:59;;;;;;;19.87;6.47;;;24.80;12.30;;;;;;5114114;28;20628;-68
2021/06/20 02:02:28;;;;;;;7.17;5.30;;;24.80;12.40;;;;;;5114504;28;20605;-68
2021/06/20 02:04:55;;;;;;;20.27;5.50;;;24.70;12.40;;;;;;5114638;28;20632;-68
2021/06/20 02:07:23;;;;;;;20.40;5.13;;;24.70;1.00;;;;;;5114220;28;20624;-68
2021/06/20 02:09:50;;;;;;;18.60;5.63;;;24.60;1.00;;;;;;5114739;28;20589;-68
2021/06/20 02:12:19;;;;;;;8.20;4.60;;;24.70;2.00;;;;;;5113940;28;20631;-68
2021/06/20 02:14:45;;;;;;;12.33;5.50;;;24.60;1.00;;;;;;5114284;28;20599;-68
2021/06/20 02:17:25;;;;;;;11.00;4.63;;;24.40;1.80;;;;;;5114172;28;21000;-68
2021/06/20 02:20:01;;;;;;;15.00;5.37;;;24.40;22.50;;;;;;5113864;28;20571;-68
2021/06/20 02:22:28;;;;;;;14.93;4.90;;;24.30;1.00;;;;;;5114272;28;20552;-68
2021/06/20 02:24:55;;;;;;;10.27;4.23;;;24.30;1.00;;;;;;5096273;28;20624;-68
2021/06/20 02:27:21;;;;;;;10.20;3.30;;;24.20;1.00;;;;;;5113317;28;20608;-68
2021/06/20 02:29:50;;;;;;;9.50;3.53;;;24.20;1.00;;;;;;5113603;28;20651;-68
2021/06/20 02:32:17;;;;;;;6.07;3.40;;;24.10;1.00;;;;;;5113813;28;20687;-68
2021/06/20 02:34:44;;;;;;;4.77;2.57;;;24.10;1.00;;;;;;5113950;28;21134;-68
2021/06/20 02:37:11;;;;;;;11.10;4.57;;;24.00;1.00;;;;;;5114032;28;20956;-68
2021/06/20 02:39:38;;;;;;;10.10;3.67;;;23.90;1.00;;;;;;5114131;28;20585;-68
2021/06/20 02:42:06;;;;;;;7.80;4.13;;;23.90;1.00;;;;;;5113223;28;20652;-68
2021/06/20 02:44:33;;;;;;;9.33;4.40;;;23.80;9.20;;;;;;5113950;28;20607;-68
2021/06/20 02:47:01;;;;;;;10.93;4.23;;;23.80;28.40;;;;;;5113907;28;20611;-68
2021/06/20 02:49:29;;;;;;;7.90;3.90;;;23.70;20.50;;;;;;5113708;28;20647;-68
2021/06/20 02:51:56;;;;;;;5.37;3.23;;;23.70;25.00;;;;;;5113700;28;20598;-68
2021/06/20 02:54:22;;;;;;;10.53;4.20;;;23.70;44.10;;;;;;5113373;28;20656;-68
2021/06/20 02:56:49;;;;;;;8.20;3.80;;;23.60;40.10;;;;;;5113746;28;20615;-68
2021/06/20 02:59:15;;;;;;;11.77;3.67;;;23.60;27.90;;;;;;5113780;28;20584;-68
2021/06/20 03:01:42;;;;;;;8.50;4.03;;;23.50;28.50;;;;;;5113443;28;20624;-68
2021/06/20 03:04:08;;;;;;;10.50;3.80;;;23.50;1.00;;;;;;5113146;28;20663;-68
2021/06/20 03:06:35;;;;;;;7.30;3.80;;;23.50;1.00;;;;;;5112873;28;20612;-68
2021/06/20 03:09:01;;;;;;;12.00;4.23;;;23.60;1.00;;;;;;5078574;28;20612;-68
2021/06/20 03:11:27;;;;;;;8.07;3.37;;;23.60;1.00;;;;;;5112078;28;20624;-68
2021/06/20 03:13:54;;;;;;;6.07;3.90;;;23.60;1.00;;;;;;5113024;28;20655;-68
2021/06/20 03:16:20;;;;;;;7.83;3.20;;;23.60;1.00;;;;;;5113450;28;20596;-68
2021/06/20 03:18:48;;;;;;;7.07;4.03;;;23.60;1.00;;;;;;5113231;28;20711;-68
2021/06/20 03:21:16;;;;;;;6.47;3.70;;;23.50;1.00;;;;;;5112819;28;20612;-68
2021/06/20 03:23:43;;;;;;;10.80;4.03;;;23.40;1.00;;;;;;5113529;28;20595;-68
2021/06/20 03:26:10;;;;;;;6.20;3.20;;;23.40;1.00;;;;;;5113686;28;20596;-68
2021/06/20 03:28:37;;;;;;;4.60;3.50;;;23.40;1.00;;;;;;5095523;28;20592;-68
2021/06/20 03:31:04;;;;;;;6.77;4.37;;;23.40;1.00;;;;;;5113476;28;21158;-68
2021/06/20 03:33:31;;;;;;;8.53;3.67;;;23.40;1.00;;;;;;5116139;28;20632;-68
2021/06/20 03:35:58;;;;;;;5.40;2.77;;;23.40;1.00;;;;;;5117081;28;20612;-68
2021/06/20 03:38:24;;;;;;;6.53;3.33;;;23.40;1.00;;;;;;5099131;28;20599;-68
2021/06/20 03:40:52;;;;;;;9.97;3.60;;;23.40;1.00;;;;;;5117274;28;20612;-68
2021/06/20 03:43:18;;;;;;;4.80;2.80;;;23.40;1.00;;;;;;5117156;28;20685;-68
2021/06/20 03:45:45;;;;;;;4.50;2.70;;;23.40;1.00;;;;;;5098985;28;20599;-68
2021/06/20 03:48:11;;;;;;;4.40;2.60;;;23.40;1.00;;;;;;5117028;28;20592;-68
2021/06/20 03:50:38;;;;;;;4.70;2.63;;;23.40;1.00;;;;;;5116898;28;20663;-68
2021/06/20 03:53:04;;;;;;;6.20;3.30;;;23.30;1.00;;;;;;5116931;28;20640;-68
2021/06/20 03:55:31;;;;;;;3.47;2.97;;;23.30;1.00;;;;;;5116815;28;20691;-68
2021/06/20 03:57:57;;;;;;;8.37;3.57;;;23.30;1.00;;;;;;5116425;28;21184;-68
2021/06/20 04:00:23;;;;;;;3.83;2.33;;;23.20;1.00;;;;;;5116931;28;20614;-68
2021/06/20 04:02:50;;;;;;;5.17;3.13;;;23.30;1.00;;;;;;5116843;28;20615;-68
2021/06/20 04:05:16;;;;;;;5.10;2.70;;;23.30;1.00;;;;;;5117013;28;21134;-69
2021/06/20 04:07:43;;;;;;;6.40;2.30;;;23.30;1.00;;;;;;5116669;28;21130;-68
2021/06/20 04:10:10;;;;;;;2.60;2.33;;;23.40;1.00;;;;;;5116682;28;21181;-68
2021/06/20 04:12:36;;;;;;;3.97;2.23;;;23.40;1.00;;;;;;5116718;28;21037;-68
2021/06/20 04:15:03;;;;;;;4.40;2.17;;;23.50;1.00;;;;;;5116382;28;20708;-68
2021/06/20 04:17:33;;;;;;;4.40;2.67;;;23.30;1.00;;;;;;5116720;28;20588;-68
2021/06/20 04:20:00;;;;;;;7.50;3.63;;;23.40;1.00;;;;;;5116207;28;20622;-68
2021/06/20 04:22:26;;;;;;;5.77;2.43;;;23.30;1.00;;;;;;5116164;28;20961;-68
2021/06/20 04:24:52;;;;;;;6.63;2.23;;;23.30;1.00;;;;;;5116305;28;20590;-68
2021/06/20 04:27:19;;;;;;;4.97;2.03;;;23.30;1.00;;;;;;5115922;28;20632;-68
2021/06/20 04:29:45;;;;;;;3.53;1.83;;;23.30;1.00;;;;;;5116330;28;21180;-68
2021/06/20 04:32:11;;;;;;;6.63;2.10;;;23.40;1.00;;;;;;5116128;28;20584;-68
2021/06/20 04:34:38;;;;;;;5.70;2.33;;;23.40;1.00;;;;;;5116029;28;20628;-68
2021/06/20 04:37:04;;;;;;;2.13;1.90;;;23.40;1.00;;;;;;5116058;28;21142;-68
2021/06/20 04:39:30;;;;;;;2.03;1.83;;;23.50;1.00;;;;;;5115397;28;20973;-68
2021/06/20 04:41:57;;;;;;;5.23;2.20;;;23.50;1.00;;;;;;5116308;28;21166;-68
2021/06/20 04:47:09;;;;;;;3.00;2.00;;;23.70;1.00;;;;;;5115919;28;20553;-68
2021/06/20 04:49:36;;;;;;;3.30;1.43;;;23.80;1.00;;;;;;5115804;28;20638;-68
2021/06/20 04:52:09;;;;;;;3.07;1.70;;;23.70;1.00;;;;;;5115974;28;20589;-68
2021/06/20 04:54:49;;;;;;;2.20;1.53;;;23.70;1.00;;;;;;5115891;28;20943;-68
2021/06/20 04:57:29;;;;;;;3.60;1.80;;;23.80;1.00;;;;;;5115429;28;20628;-68
2021/06/20 04:59:57;;;;;;;4.83;2.10;;;23.80;1.00;;;;;;5115903;28;20888;-68
2021/06/20 05:02:24;;;;;;;3.13;1.97;;;23.70;1.00;;;;;;5115367;28;20663;-68
2021/06/20 05:04:50;;;;;;;3.40;2.37;;;23.70;1.00;;;;;;5115579;28;20597;-68
2021/06/20 05:07:17;;;;;;;2.50;1.90;;;23.60;1.00;;;;;;5115129;28;20672;-68
2021/06/20 05:09:44;;;;;;;3.17;2.47;;;23.50;1.00;;;;;;5114858;28;20616;-68
2021/06/20 05:12:11;;;;;;;3.23;2.03;;;23.50;1.00;;;;;;5115467;28;20593;-68
2021/06/20 05:14:45;;;;;;;2.90;2.53;;;23.50;1.00;;;;;;5115005;28;20656;-68
2021/06/20 05:17:14;;;;;;;1.80;1.67;;;23.50;1.00;;;;;;5115138;28;21122;-68
2021/06/20 05:19:41;;;;;;;4.30;2.70;;;23.40;1.00;;;;;;5115163;28;20607;-68
2021/06/20 05:22:09;;;;;;;3.43;1.90;;;23.40;1.00;;;;;;5115155;28;20712;-68
2021/06/20 05:24:37;;;;;;;3.93;2.40;;;23.40;1.00;;;;;;5096903;28;20629;-68
2021/06/20 05:27:03;;;;;;;3.33;2.77;;;23.30;1.00;;;;;;5115177;28;20603;-68
2021/06/20 05:29:30;;;;;;;2.90;2.03;;;23.40;1.00;;;;;;5115202;28;20608;-68
2021/06/20 05:31:56;;;;;;;2.50;1.90;;;23.30;1.00;;;;;;5115004;28;20597;-68
2021/06/20 05:34:22;;;;;;;4.50;2.40;;;23.30;1.00;;;;;;5114874;28;20640;-68
2021/06/20 05:36:49;;;;;;;4.60;2.30;;;23.40;1.00;;;;;;5115004;28;20683;-68
2021/06/20 05:39:15;;;;;;;4.00;2.30;;;23.60;1.00;;;;;;5114728;28;20632;-68
2021/06/20 05:41:42;;;;;;;3.03;2.40;;;23.50;1.00;;;;;;5096356;28;20994;-68
2021/06/20 05:44:08;;;;;;;4.90;2.10;;;23.50;1.00;;;;;;5114760;28;20588;-68
2021/06/20 05:46:35;;;;;;;7.10;2.67;;;23.50;1.00;;;;;;5114670;28;20600;-68
2021/06/20 05:49:01;;;;;;;4.60;2.27;;;23.70;1.00;;;;;;5095939;28;20628;-68
2021/06/20 05:51:27;;;;;;;4.40;2.57;;;23.60;1.00;;;;;;5114315;28;20638;-68
2021/06/20 05:53:54;;;;;;;2.60;2.40;;;23.60;1.00;;;;;;5114564;28;20696;-68
2021/06/20 05:56:20;;;;;;;2.90;2.17;;;23.70;1.00;;;;;;5095797;28;20950;-68
2021/06/20 05:58:47;;;;;;;5.00;2.23;;;23.60;1.00;;;;;;5114435;28;20600;-68
2021/06/20 06:01:13;;;;;;;2.50;2.30;;;23.70;1.00;;;;;;5114623;28;20595;-67
2021/06/20 06:03:39;;;;;;;3.40;2.43;;;23.60;1.00;;;;;;5114511;28;20609;-67
2021/06/20 06:06:06;;;;;;;4.40;2.50;;;23.50;1.00;;;;;;5114332;28;20603;-67
2021/06/20 06:08:32;;;;;;;2.83;2.60;;;23.50;1.00;;;;;;5114418;28;20589;-68
2021/06/20 06:10:59;;;;;;;4.23;2.70;;;23.40;1.00;;;;;;5114193;28;20603;-68
2021/06/20 06:13:25;;;;;;;6.43;2.73;;;23.50;1.00;;;;;;5113957;28;20663;-68
2021/06/20 06:15:52;;;;;;;2.70;2.40;;;23.40;1.00;;;;;;5114393;28;20600;-68
2021/06/20 06:18:18;;;;;;;2.83;2.47;;;23.30;1.00;;;;;;5114286;28;20593;-67
2021/06/20 06:20:44;;;;;;;4.80;2.53;;;23.30;1.00;;;;;;5114124;28;20603;-68
2021/06/20 06:23:12;;;;;;;2.97;2.70;;;23.20;1.00;;;;;;5114185;28;20600;-67
2021/06/20 06:25:38;;;;;;;3.77;2.73;;;23.20;1.00;;;;;;5114105;28;20703;-67
2021/06/20 06:28:05;;;;;;;2.90;2.60;;;23.30;1.30;;;;;;5114164;28;20592;-67
2021/06/20 06:30:31;;;;;;;8.60;3.90;;;23.10;10.90;;;;;;5113864;28;21140;-67
2021/06/20 06:32:58;;;;;;;3.13;2.70;;;23.10;20.80;;;;;;5113560;28;20622;-67
2021/06/20 06:35:24;;;;;;;5.73;2.60;;;23.20;26.80;;;;;;5113967;28;20683;-67
2021/06/20 06:37:51;;;;;;;3.70;2.60;;;23.30;5.30;;;;;;5113899;28;21138;-68
2021/06/20 06:40:18;;;;;;;3.67;2.80;;;23.40;1.00;;;;;;5113257;28;20644;-67
2021/06/20 06:42:44;;;;;;;7.47;3.40;;;23.20;16.40;;;;;;5113832;28;20604;-67
2021/06/20 06:45:11;;;;;;;5.83;3.07;;;23.30;6.80;;;;;;5113770;28;20627;-67
2021/06/20 06:47:38;;;;;;;4.40;3.77;;;23.30;4.20;;;;;;5113227;28;20624;-67
2021/06/20 06:50:05;;;;;;;2.70;2.50;;;23.30;1.00;;;;;;5113080;28;20685;-67
2021/06/20 06:52:32;;;;;;;8.30;3.10;;;23.40;13.50;;;;;;5113558;28;20632;-67
2021/06/20 06:54:58;;;;;;;6.10;3.80;;;23.60;1.00;;;;;;5113395;28;20636;-67
2021/06/20 06:57:25;;;;;;;2.97;2.77;;;24.20;10.50;;;;;;5113620;28;20592;-67
2021/06/20 06:59:53;;;;;;;3.47;2.80;;;24.50;1.00;;;;;;5113231;28;20616;-67
2021/06/20 07:02:22;;;;;;;3.37;2.80;;;24.30;1.00;;;;;;5113633;28;20607;-67
2021/06/20 07:04:50;;;;;;;3.57;2.60;;;24.30;1.00;;;;;;5112941;28;21169;-67
2021/06/20 07:07:16;;;;;;;12.10;3.03;;;24.00;1.00;;;;;;5116294;28;20714;-67
2021/06/20 07:09:43;;;;;;;3.93;3.43;;;24.20;1.00;;;;;;5117858;28;20584;-68
2021/06/20 07:12:09;;;;;;;4.07;2.70;;;24.20;1.00;;;;;;5117804;28;20592;-67
2021/06/20 07:14:36;;;;;;;3.10;2.40;;;24.10;1.00;;;;;;5117591;28;20636;-68
2021/06/20 07:17:07;;;;;;;5.93;3.17;;;24.00;1.00;;;;;;5117500;28;20612;-67
2021/06/20 07:19:36;;;;;;;4.53;2.67;;;23.80;1.00;;;;;;5117725;28;20597;-67
2021/06/20 07:22:05;;;;;;;6.83;2.90;;;23.80;1.00;;;;;;5117185;28;21161;-67
2021/06/20 07:24:31;;;;;;;8.43;2.57;;;24.10;1.00;;;;;;5117020;28;20723;-67
2021/06/20 07:26:58;;;;;;;4.17;2.90;;;24.40;1.00;;;;;;5117433;28;21225;-68
2021/06/20 07:29:24;;;;;;;2.40;2.30;;;23.90;1.00;;;;;;5116633;28;20829;-68
2021/06/20 07:31:50;;;;;;;3.90;2.70;;;24.00;1.00;;;;;;5117286;28;20585;-68
2021/06/20 07:34:17;;;;;;;8.23;2.77;;;23.90;1.00;;;;;;5117191;28;20628;-68
2021/06/20 07:36:43;;;;;;;9.00;3.10;;;24.00;1.00;;;;;;5117538;28;20607;-68
2021/06/20 07:39:10;;;;;;;3.17;2.57;;;24.30;1.00;;;;;;5116813;28;21154;-68
2021/06/20 07:41:36;;;;;;;5.17;2.67;;;24.30;1.00;;;;;;5117236;28;20626;-68
2021/06/20 07:44:03;;;;;;;4.90;2.80;;;24.80;1.00;;;;;;5111561;28;21165;-68
2021/06/20 07:46:29;;;;;;;3.70;2.60;;;24.80;1.00;;;;;;5107769;28;20620;-68
2021/06/20 07:48:56;;;;;;;5.23;2.87;;;24.70;1.00;;;;;;5115955;28;20620;-68
2021/06/20 07:51:22;;;;;;;6.00;2.97;;;24.40;1.00;;;;;;5117015;28;20604;-68
2021/06/20 07:53:49;;;;;;;3.60;3.10;;;24.40;1.00;;;;;;5116596;28;21025;-68
2021/06/20 07:56:15;;;;;;;4.47;3.30;;;24.30;1.00;;;;;;5116344;28;20619;-68
2021/06/20 07:58:42;;;;;;;5.20;2.80;;;24.60;1.00;;;;;;5116591;28;20615;-68
2021/06/20 08:01:08;;;;;;;5.50;3.10;;;24.80;1.00;;;;;;5097895;28;20624;-68
2021/06/20 08:03:34;;;;;;;5.63;3.47;;;24.80;1.00;;;;;;5116360;28;20655;-68
2021/06/20 08:06:01;;;;;;;2.90;2.60;;;24.40;1.00;;;;;;5115851;28;20624;-68
2021/06/20 08:08:27;;;;;;;7.33;3.53;;;24.70;1.00;;;;;;5116628;28;20624;-68
2021/06/20 08:10:54;;;;;;;3.40;2.90;;;25.20;1.00;;;;;;5116261;28;21004;-68
2021/06/20 08:13:20;;;;;;;4.00;2.60;;;25.30;1.00;;;;;;5115991;28;20612;-69
2021/06/20 08:15:47;;;;;;;3.47;3.07;;;25.10;1.00;;;;;;5116687;28;20592;-68
2021/06/20 08:18:13;;;;;;;4.90;2.93;;;24.80;1.00;;;;;;5115911;28;20600;-69
2021/06/20 08:20:39;;;;;;;6.80;3.00;;;24.80;1.00;;;;;;5116482;28;20624;-69
2021/06/20 08:23:06;;;;;;;8.13;3.23;;;24.90;1.00;;;;;;5116445;28;20596;-69
2021/06/20 08:25:33;;;;;;;4.03;3.10;;;25.20;1.00;;;;;;5116502;28;20600;-69
2021/06/20 08:27:59;;;;;;;3.70;2.97;;;25.20;1.00;;;;;;5116218;28;21165;-69
2021/06/20 08:30:25;;;;;;;3.37;2.90;;;24.90;1.00;;;;;;5116394;28;20623;-69
2021/06/20 08:32:52;;;;;;;4.83;2.57;;;24.70;1.00;;;;;;5116344;28;20596;-69
2021/06/20 08:35:19;;;;;;;4.80;3.10;;;25.10;1.00;;;;;;5116117;28;20623;-69
2021/06/20 08:37:46;;;;;;;4.43;2.93;;;25.30;1.00;;;;;;5111480;28;20609;-69
2021/06/20 08:40:14;;;;;;;2.93;2.50;;;25.20;1.00;;;;;;5105369;28;21011;-69
2021/06/20 08:42:40;;;;;;;5.33;2.80;;;25.40;1.00;;;;;;5115691;28;20628;-69
2021/06/20 08:45:07;;;;;;;5.77;2.80;;;25.40;1.00;;;;;;5097421;28;20608;-69
2021/06/20 08:47:35;;;;;;;3.60;3.07;;;25.80;1.00;;;;;;5115321;28;20608;-68
2021/06/20 08:50:01;;;;;;;6.10;3.40;;;25.50;1.00;;;;;;5115349;28;20639;-68
2021/06/20 08:52:28;;;;;;;3.10;2.87;;;25.50;1.00;;;;;;5115522;28;20615;-68
2021/06/20 08:55:00;;;;;;;2.97;2.73;;;25.20;1.00;;;;;;5114625;28;20751;-68
2021/06/20 08:57:32;;;;;;;4.30;2.47;;;25.40;1.00;;;;;;5115174;28;20592;-68
2021/06/20 08:59:59;;;;;;;8.77;3.20;;;25.10;1.00;;;;;;5115051;28;20612;-68
2021/06/20 09:02:29;;;;;;;5.10;3.50;;;25.10;1.00;;;;;;5115703;28;20612;-67
2021/06/20 09:04:58;;;;;;;4.57;2.57;;;24.60;1.00;;;;;;5114995;28;20639;-67
2021/06/20 09:07:30;;;;;;;5.00;3.40;;;24.90;1.00;;;;;;5113502;28;20629;-67
2021/06/20 09:10:15;;;;;;;5.47;3.10;;;24.90;1.00;;;;;;5115014;28;21039;-68
2021/06/20 09:12:45;;;;;;;3.33;3.03;;;24.80;1.00;;;;;;5115140;28;20672;-67
2021/06/20 09:15:13;;;;;;;3.37;3.03;;;24.50;1.00;;;;;;5114975;28;20742;-67
2021/06/20 09:17:39;;;;;;;3.87;3.03;;;24.50;1.00;;;;;;5114485;28;20629;-68
2021/06/20 09:20:07;;;;;;;6.40;3.40;;;24.70;1.00;;;;;;5114921;28;20616;-67
2021/06/20 09:22:33;;;;;;;5.53;3.57;;;24.80;1.00;;;;;;5114370;28;20631;-68
2021/06/20 09:25:08;;;;;;;4.13;2.97;;;24.90;1.00;;;;;;5114654;28;20978;-68
2021/06/20 09:27:35;;;;;;;4.90;2.80;;;24.90;1.00;;;;;;5114974;28;20599;-68
2021/06/20 09:30:11;;;;;;;9.63;3.30;;;24.90;1.00;;;;;;5123076;28;20623;-79
2021/06/20 09:32:50;;;;;;;6.07;3.00;;;25.10;1.00;;;;;;5125201;28;21071;-80
2021/06/20 09:35:17;;;;;;;4.60;2.80;;;25.10;1.00;;;;;;5125715;28;20687;-81
2021/06/20 09:37:55;;;;;;;4.73;2.73;;;25.00;1.00;;;;;;5107304;28;20983;-80
2021/06/20 09:40:25;;;;;;;5.10;2.83;;;24.80;1.00;;;;;;5125192;28;20675;-79
2021/06/20 09:42:52;;;;;;;6.27;3.00;;;24.80;1.00;;;;;;5107578;28;20644;-78
2021/06/20 09:45:26;;;;;;;3.07;2.77;;;25.10;1.00;;;;;;5123976;28;20640;-79
2021/06/20 09:47:53;;;;;;;4.07;3.30;;;25.20;1.00;;;;;;5097100;28;20629;-80
2021/06/20 09:50:36;;;;;;;4.30;3.17;;;24.80;1.00;;;;;;5111384;28;20643;-80
2021/06/20 09:53:04;;;;;;;3.50;3.20;;;24.60;1.00;;;;;;5095141;28;20621;-80
2021/06/20 09:55:31;;;;;;;4.03;3.30;;;24.30;1.00;;;;;;5121976;28;20686;-80
2021/06/20 09:58:02;;;;;;;6.20;3.33;;;24.60;1.00;;;;;;5110341;28;20627;-80
2021/06/20 10:00:49;;;;;;;3.40;3.10;;;24.90;1.00;;;;;;5102384;28;20615;-79
2021/06/20 10:03:24;;;;;;;5.63;3.37;;;25.40;1.00;;;;;;5107800;28;20619;-79
2021/06/20 10:05:53;;;;;;;3.67;3.37;;;25.60;1.00;;;;;;5110727;28;20612;-80
2021/06/20 10:08:20;;;;;;;3.20;2.90;;;25.70;1.00;;;;;;5111057;28;20616;-79
2021/06/20 10:10:46;;;;;;;7.50;3.67;;;25.40;1.00;;;;;;5129416;28;21173;-79
2021/06/20 10:13:13;;;;;;;5.30;3.30;;;26.00;1.00;;;;;;5128830;28;20616;-79
2021/06/20 10:15:39;;;;;;;3.60;3.10;;;26.40;4.10;;;;;;5111156;28;20668;-80
2021/06/20 10:18:08;;;;;;;5.27;3.10;;;26.60;7.30;;;;;;5111497;28;20619;-80
2021/06/20 10:20:35;;;;;;;4.10;3.10;;;26.80;35.50;;;;;;5130149;28;20691;-80
2021/06/20 10:23:03;;;;;;;4.90;3.60;;;26.40;1.00;;;;;;5129609;28;20688;-80
2021/06/20 10:25:37;;;;;;;4.87;3.60;;;26.30;15.10;;;;;;5130441;28;20687;-80
2021/06/20 10:28:07;;;;;;;4.70;3.13;;;26.20;1.00;;;;;;5111879;28;20656;-80
2021/06/20 10:30:35;;;;;;;4.07;3.60;;;26.40;10.00;;;;;;5129625;28;20614;-80
2021/06/20 10:33:16;;;;;;;4.53;2.80;;;26.80;51.60;;;;;;5111985;28;20688;-80
2021/06/20 10:35:44;;;;;;;3.90;2.33;;;26.80;85.40;;;;;;5129527;28;20623;-80
2021/06/20 10:38:43;;;;;;;4.00;2.40;;;26.50;99.90;;;;;;5130137;28;20603;-80
2021/06/20 10:41:28;;;;;;;5.53;2.97;;;26.30;93.30;;;;;;5129670;28;20616;-80
2021/06/20 10:43:55;;;;;;;4.97;3.13;;;27.20;93.00;;;;;;5112035;28;20604;-80
2021/06/20 10:46:22;;;;;;;6.20;3.73;;;26.90;99.90;;;;;;5129431;28;20656;-79
2021/06/20 10:48:48;;;;;;;4.50;2.83;;;27.00;66.80;;;;;;5130735;28;20619;-80
2021/06/20 10:51:19;;;;;;;2.73;2.50;;;27.50;99.90;;;;;;5130702;28;20571;-80
2021/06/20 10:53:46;;;;;;;2.83;2.63;;;27.30;99.90;;;;;;5113456;28;20601;-80
2021/06/20 10:56:22;;;;;;;5.77;2.87;;;27.10;99.90;;;;;;5112774;28;20687;-79
2021/06/20 10:58:50;;;;;;;3.20;2.90;;;27.60;99.90;;;;;;5130522;28;20559;-80
2021/06/20 11:01:19;;;;;;;3.13;2.80;;;27.50;99.90;;;;;;5112056;28;20605;-80
2021/06/20 11:03:52;;;;;;;5.73;2.93;;;26.50;99.90;;;;;;5110731;28;20624;-80
2021/06/20 11:06:20;;;;;;;7.73;3.47;;;26.20;98.20;;;;;;5129263;28;20629;-79
2021/06/20 11:08:53;;;;;;;5.17;3.17;;;26.40;99.90;;;;;;5112441;28;20959;-79
2021/06/20 11:11:25;;;;;;;3.30;2.60;;;26.80;99.90;;;;;;5129615;28;20655;-80
2021/06/20 11:13:54;;;;;;;5.73;3.50;;;27.40;99.90;;;;;;5130059;28;20668;-80
2021/06/20 11:16:27;;;;;;;5.17;4.33;;;27.40;99.90;;;;;;5108653;28;20639;-80
2021/06/20 11:19:10;;;;;;;4.47;2.53;;;26.70;99.90;;;;;;5110388;28;20685;-80
2021/06/20 11:21:41;;;;;;;6.20;3.70;;;26.90;99.90;;;;;;5107442;28;20684;-80
2021/06/20 11:24:09;;;;;;;3.83;3.23;;;27.20;99.90;;;;;;5109469;28;20617;-80
2021/06/20 11:26:36;;;;;;;5.67;3.23;;;28.00;99.90;;;;;;5109979;28;21182;-79
2021/06/20 11:29:05;;;;;;;6.27;3.63;;;28.30;99.90;;;;;;5109969;28;20601;-80
2021/06/20 11:31:42;;;;;;;5.87;2.90;;;29.00;99.90;;;;;;5092994;28;20677;-80
2021/06/20 11:34:09;;;;;;;4.60;3.80;;;29.50;99.90;;;;;;5110453;28;20581;-80
2021/06/20 11:36:36;;;;;;;9.23;3.30;;;28.80;99.90;;;;;;5111095;28;20597;-80
2021/06/20 11:39:07;;;;;;;6.00;3.40;;;29.30;99.90;;;;;;5111275;28;20601;-80
2021/06/20 11:41:50;;;;;;;5.17;3.03;;;30.20;99.90;;;;;;5075451;28;20722;-82
2021/06/20 11:44:17;;;;;;;3.90;3.33;;;30.20;99.90;;;;;;5095226;28;20645;-80
2021/06/20 11:46:46;;;;;;;8.10;3.67;;;29.70;99.90;;;;;;5110909;28;20588;-81
2021/06/20 11:49:17;;;;;;;3.90;3.47;;;29.40;99.90;;;;;;5092703;28;20743;-80
2021/06/20 11:51:49;;;;;;;5.33;2.90;;;29.90;99.90;;;;;;5111470;28;20645;-80
2021/06/20 11:54:20;;;;;;;9.37;4.10;;;30.30;99.90;;;;;;5094814;28;20652;-80
2021/06/20 11:56:55;;;;;;;6.40;3.83;;;29.90;99.90;;;;;;5114064;28;20593;-80
2021/06/20 11:59:39;;;;;;;5.33;3.40;;;30.40;99.90;;;;;;5113492;28;20625;-80
2021/06/20 12:02:10;;;;;;;7.50;3.70;;;30.50;99.90;;;;;;5113743;28;20931;-80
2021/06/20 12:04:42;;;;;;;9.93;4.40;;;30.80;99.90;;;;;;5113671;28;20992;-80
2021/06/20 12:07:09;;;;;;;7.43;4.00;;;30.00;99.90;;;;;;5112504;28;20617;-80
2021/06/20 12:09:37;;;;;;;3.80;3.40;;;30.70;99.90;;;;;;5113141;28;20684;-81
2021/06/20 12:12:06;;;;;;;4.27;3.87;;;31.10;99.90;;;;;;5110589;28;20601;-79
2021/06/20 12:14:33;;;;;;;6.20;4.10;;;30.90;99.90;;;;;;5093181;28;20717;-80
2021/06/20 12:17:01;;;;;;;5.17;3.60;;;31.00;99.90;;;;;;5092553;28;20609;-80
2021/06/20 12:19:36;;;;;;;7.50;3.70;;;31.60;99.90;;;;;;5110577;28;20601;-79
2021/06/20 12:22:10;;;;;;;8.00;4.30;;;31.60;99.90;;;;;;5111117;28;20591;-79
2021/06/20 12:24:41;;;;;;;10.63;4.70;;;31.80;99.90;;;;;;5110347;28;20637;-79
2021/06/20 12:27:08;;;;;;;6.63;4.23;;;31.00;99.90;;;;;;5091690;28;20720;-79
2021/06/20 12:29:36;;;;;;;9.10;4.07;;;30.40;99.90;;;;;;5082559;28;20703;-67
2021/06/20 12:32:12;;;;;;;8.97;4.40;;;30.50;99.90;;;;;;5096000;28;20617;-67
2021/06/20 12:34:50;;;;;;;6.43;3.83;;;30.20;99.90;;;;;;5095746;28;20592;-67
2021/06/20 12:37:18;;;;;;;7.03;3.47;;;30.70;99.90;;;;;;5094966;28;20636;-67
2021/06/20 12:39:54;;;;;;;7.30;4.07;;;30.90;99.90;;;;;;5095478;28;20621;-67
2021/06/20 12:42:23;;;;;;;7.87;4.20;;;30.40;99.90;;;;;;5095821;28;21134;-68
2021/06/20 12:44:54;;;;;;;7.20;4.40;;;31.30;99.90;;;;;;5095578;28;20594;-68
2021/06/20 12:47:33;;;;;;;5.57;4.20;;;32.40;99.90;;;;;;5095385;28;20624;-68
2021/06/20 12:50:00;;;;;;;5.33;4.00;;;32.20;97.80;;;;;;5095358;28;20633;-68
2021/06/20 12:52:36;;;;;;;6.80;4.40;;;31.90;99.90;;;;;;5095464;28;20617;-68
2021/06/20 12:55:30;;;;;;;10.73;4.37;;;31.80;99.90;;;;;;5077106;28;20653;-68
2021/06/20 12:58:05;;;;;;;6.10;4.00;;;32.10;99.90;;;;;;5092493;28;20640;-68
2021/06/20 13:00:33;;;;;;;8.90;4.33;;;31.20;99.90;;;;;;5095398;28;20558;-74